Time;durP1;ratioP1;P1;durP2;ratioP2;P2;SDS_P1;SDS_P2;PMS_P1;PMS_P2;Temp;Humidity;BMP_temperature;BMP_pressure;BME280_temperature;BME280_humidity;BME280_pressure;Samples;Min_cycle;Max_cycle;Signal;HPM_P1;HPM_P2
2021/12/25 00:01:20;;;;;;;;;;;2.80;99.90;;;;;;5055133;28;19932;-78
2021/12/25 00:03:46;;;;;;;;;;;2.80;99.90;;;;;;5055019;28;19955;-78
2021/12/25 00:06:12;;;;;;;;;;;2.80;99.90;;;;;;5055516;28;19985;-77
2021/12/25 00:08:37;;;;;;;;;;;2.80;99.90;;;;;;5055074;28;20322;-79
2021/12/25 00:11:04;;;;;;;;;;;2.80;99.90;;;;;;5054943;28;19914;-77
2021/12/25 00:13:30;;;;;;;;;;;2.70;99.90;;;;;;5054903;28;20304;-77
2021/12/25 00:15:56;;;;;;;;;;;2.70;99.90;;;;;;5054670;28;19932;-78
2021/12/25 00:18:22;;;;;;;;;;;2.80;99.90;;;;;;5054832;28;19924;-76
2021/12/25 00:20:48;;;;;;;;;;;2.80;99.90;;;;;;5056059;28;19971;-77
2021/12/25 00:23:14;;;;;;;;;;;2.80;99.90;;;;;;5054644;28;19913;-77
2021/12/25 00:25:44;;;;;;;;;;;2.80;99.90;;;;;;5055883;28;20318;-78
2021/12/25 00:31:01;;;;;;;;;;;2.80;99.90;;;;;;5056027;28;19912;-77
2021/12/25 00:35:55;;;;;;;;;;;2.80;99.90;;;;;;5055776;28;19909;-79
2021/12/25 00:38:21;;;;;;;;;;;2.80;99.90;;;;;;5055373;28;19940;-77
2021/12/25 00:40:46;;;;;;;;;;;2.80;99.90;;;;;;5055759;28;20023;-77
2021/12/25 00:43:12;;;;;;;;;;;2.70;99.90;;;;;;5054274;28;19912;-78
2021/12/25 00:45:37;;;;;;;;;;;2.70;99.90;;;;;;5054653;28;19958;-78
2021/12/25 00:48:03;;;;;;;;;;;2.70;99.90;;;;;;5054255;28;19952;-78
2021/12/25 00:50:29;;;;;;;;;;;2.70;99.90;;;;;;5055459;28;20303;-79
2021/12/25 00:52:54;;;;;;;;;;;2.70;99.90;;;;;;5055338;28;19909;-77
2021/12/25 00:55:20;;;;;;;;;;;2.70;99.90;;;;;;5054773;28;20029;-77
2021/12/25 00:57:45;;;;;;;;;;;2.60;99.90;;;;;;5054119;28;19916;-76
2021/12/25 01:00:12;;;;;;;;;;;2.60;99.90;;;;;;5055380;28;19923;-76
2021/12/25 01:02:39;;;;;;;;;;;2.60;99.90;;;;;;5055259;28;19908;-77
2021/12/25 01:05:06;;;;;;;;;;;2.50;99.90;;;;;;5055081;28;19909;-78
2021/12/25 01:07:31;;;;;;;;;;;2.50;99.90;;;;;;5037568;28;19917;-76
2021/12/25 01:09:57;;;;;;;;;;;2.40;99.90;;;;;;5055282;28;20327;-76
2021/12/25 01:12:23;;;;;;;;;;;2.40;99.90;;;;;;5054103;28;20325;-78
2021/12/25 01:14:54;;;;;;;;;;;2.40;99.90;;;;;;5054000;28;19927;-77
2021/12/25 01:20:11;;;;;;;;;;;2.30;99.90;;;;;;5055123;28;19913;-77
2021/12/25 01:30:29;;;;;;;;;;;2.30;99.90;;;;;;5055207;28;19909;-78
2021/12/25 01:41:43;;;;;;;;;;;2.20;99.90;;;;;;5033072;28;19956;-77
2021/12/25 01:49:34;;;;;;;;;;;2.20;99.90;;;;;;5032840;28;20224;-76
2021/12/25 01:52:00;;;;;;;;;;;2.10;99.90;;;;;;5033099;28;19920;-77
2021/12/25 01:54:26;;;;;;;;;;;2.10;99.90;;;;;;5032806;28;19913;-78
2021/12/25 01:56:52;;;;;;;;;;;2.10;99.90;;;;;;5032629;28;19913;-77
2021/12/25 01:59:17;;;;;;;;;;;2.10;99.90;;;;;;5016010;28;19913;-78
2021/12/25 02:01:43;;;;;;;;;;;2.20;99.90;;;;;;5032587;28;19971;-77
2021/12/25 02:04:09;;;;;;;;;;;2.20;99.90;;;;;;5032618;28;20000;-77
2021/12/25 02:06:35;;;;;;;;;;;2.20;99.90;;;;;;5034270;28;19992;-77
2021/12/25 02:09:01;;;;;;;;;;;2.20;99.90;;;;;;5036508;28;19909;-77
2021/12/25 02:11:26;;;;;;;;;;;2.20;99.90;;;;;;5036537;28;19992;-77
2021/12/25 02:13:52;;;;;;;;;;;2.10;99.90;;;;;;5036238;28;20274;-77
2021/12/25 02:16:21;;;;;;;;;;;2.10;99.90;;;;;;5049746;28;19975;-77
2021/12/25 02:19:02;;;;;;;;;;;2.10;99.90;;;;;;5057077;28;19917;-76
2021/12/25 02:21:50;;;;;;;;;;;2.10;99.90;;;;;;5058503;28;20291;-77
2021/12/25 02:24:13;;;;;;;;;;;2.20;99.90;;;;;;5058077;28;19909;-78
2021/12/25 02:26:41;;;;;;;;;;;2.20;99.90;;;;;;5057191;28;20208;-76
2021/12/25 02:29:06;;;;;;;;;;;2.10;99.90;;;;;;5057372;28;19987;-77
2021/12/25 02:31:32;;;;;;;;;;;2.10;99.90;;;;;;5058057;28;19947;-77
2021/12/25 02:33:58;;;;;;;;;;;2.10;99.90;;;;;;5057116;28;19909;-77
2021/12/25 02:36:23;;;;;;;;;;;2.00;99.90;;;;;;5057031;28;19916;-78
2021/12/25 02:38:49;;;;;;;;;;;2.00;99.90;;;;;;5057979;28;20007;-79
2021/12/25 02:41:15;;;;;;;;;;;1.90;99.90;;;;;;5056776;28;19908;-77
2021/12/25 02:43:43;;;;;;;;;;;1.90;99.90;;;;;;5056478;28;19950;-77
2021/12/25 02:46:09;;;;;;;;;;;1.90;99.90;;;;;;5057869;28;19909;-76
2021/12/25 02:48:38;;;;;;;;;;;1.90;99.90;;;;;;5056683;28;19973;-80
2021/12/25 02:51:04;;;;;;;;;;;1.90;99.90;;;;;;5056498;28;19909;-77
2021/12/25 02:53:30;;;;;;;;;;;1.80;99.90;;;;;;5055664;28;19919;-77
2021/12/25 02:55:56;;;;;;;;;;;1.80;99.90;;;;;;5057578;28;19916;-78
2021/12/25 02:58:23;;;;;;;;;;;1.80;99.90;;;;;;5056910;28;20023;-76
2021/12/25 03:00:49;;;;;;;;;;;1.80;99.90;;;;;;5057530;28;19915;-76
2021/12/25 03:03:15;;;;;;;;;;;1.80;99.90;;;;;;5056135;28;19912;-78
2021/12/25 03:05:40;;;;;;;;;;;1.80;99.90;;;;;;5056227;28;19959;-78
2021/12/25 03:08:07;;;;;;;;;;;1.80;99.90;;;;;;5057275;28;19964;-77
2021/12/25 03:10:35;;;;;;;;;;;1.70;99.90;;;;;;5056181;28;19959;-76
2021/12/25 03:13:17;;;;;;;;;;;1.70;99.90;;;;;;5056186;28;20212;-77
2021/12/25 03:15:45;;;;;;;;;;;1.60;99.90;;;;;;5055760;28;20223;-79
2021/12/25 03:18:17;;;;;;;;;;;1.60;99.90;;;;;;5038594;28;20361;-80
2021/12/25 03:20:46;;;;;;;;;;;1.60;99.90;;;;;;5056025;28;19964;-77
2021/12/25 03:23:16;;;;;;;;;;;1.60;99.90;;;;;;5055979;28;19919;-78
2021/12/25 03:25:42;;;;;;;;;;;1.50;99.90;;;;;;5055876;28;19913;-78
2021/12/25 03:28:07;;;;;;;;;;;1.50;99.90;;;;;;5057019;28;20275;-78
2021/12/25 03:30:37;;;;;;;;;;;1.50;99.90;;;;;;5056929;28;19913;-78
2021/12/25 03:33:07;;;;;;;;;;;1.50;99.90;;;;;;5055808;28;19917;-78
2021/12/25 03:35:34;;;;;;;;;;;1.40;99.90;;;;;;5056498;28;19912;-78
2021/12/25 03:38:00;;;;;;;;;;;1.50;99.90;;;;;;5055564;28;19916;-80
2021/12/25 03:40:26;;;;;;;;;;;1.50;99.90;;;;;;5055541;28;20369;-78
2021/12/25 03:42:52;;;;;;;;;;;1.40;99.90;;;;;;5055576;28;19917;-76
2021/12/25 03:45:17;;;;;;;;;;;1.40;99.90;;;;;;5056437;28;19913;-78
2021/12/25 03:47:45;;;;;;;;;;;1.40;99.90;;;;;;5056576;28;19913;-77
2021/12/25 03:58:11;;;;;;;;;;;1.40;99.90;;;;;;5056535;28;19924;-78
2021/12/25 04:00:37;;;;;;;;;;;1.30;99.90;;;;;;5056369;28;19944;-78
2021/12/25 04:03:08;;;;;;;;;;;1.20;99.90;;;;;;5055019;28;19909;-79
2021/12/25 04:05:36;;;;;;;;;;;1.20;99.90;;;;;;5055028;28;20197;-79
2021/12/25 04:10:28;;;;;;;;;;;1.10;99.90;;;;;;5056193;28;19912;-78
2021/12/25 04:12:55;;;;;;;;;;;1.10;99.90;;;;;;5056119;28;20227;-77
2021/12/25 04:15:20;;;;;;;;;;;1.10;99.90;;;;;;5053745;28;20275;-79
2021/12/25 04:17:46;;;;;;;;;;;1.10;99.90;;;;;;5053943;28;19962;-78
2021/12/25 04:20:12;;;;;;;;;;;1.00;99.90;;;;;;5054188;28;19936;-77
2021/12/25 04:22:49;;;;;;;;;;;1.00;99.90;;;;;;5054746;28;19948;-78
2021/12/25 04:25:21;;;;;;;;;;;1.00;99.90;;;;;;5055743;28;19948;-76
2021/12/25 04:27:46;;;;;;;;;;;1.00;99.90;;;;;;5071808;28;19913;-76
2021/12/25 04:30:32;;;;;;;;;;;1.00;99.90;;;;;;5055886;28;20270;-78
2021/12/25 05:03:17;;;;;;;;;;;0.50;99.90;;;;;;5055716;28;20026;-76
2021/12/25 05:05:43;;;;;;;;;;;0.50;99.90;;;;;;5055027;28;19920;-77
2021/12/25 05:08:09;;;;;;;;;;;0.50;99.90;;;;;;5054348;28;19909;-79
2021/12/25 05:10:34;;;;;;;;;;;0.50;99.90;;;;;;5054047;28;19909;-77
2021/12/25 05:13:00;;;;;;;;;;;0.40;99.90;;;;;;5055274;28;19928;-78
2021/12/25 05:15:26;;;;;;;;;;;0.40;99.90;;;;;;5054850;28;19925;-78
2021/12/25 05:17:51;;;;;;;;;;;0.30;99.90;;;;;;5055110;28;20292;-78
2021/12/25 05:20:18;;;;;;;;;;;0.20;99.90;;;;;;5055219;28;19909;-79
2021/12/25 05:22:44;;;;;;;;;;;0.20;99.90;;;;;;5054180;28;19909;-79
2021/12/25 05:25:11;;;;;;;;;;;0.20;99.90;;;;;;5053838;28;19932;-78
2021/12/25 05:27:37;;;;;;;;;;;0.20;99.90;;;;;;5055127;28;19912;-78
2021/12/25 05:30:03;;;;;;;;;;;0.10;99.90;;;;;;5054858;28;20359;-79
2021/12/25 05:32:29;;;;;;;;;;;0.10;99.90;;;;;;5054984;28;19912;-76
2021/12/25 05:34:54;;;;;;;;;;;0.00;99.90;;;;;;5055156;28;20829;-79
2021/12/25 05:37:20;;;;;;;;;;;0.00;99.90;;;;;;5055175;28;19909;-78
2021/12/25 05:39:50;;;;;;;;;;;0.00;99.90;;;;;;5055103;28;20342;-78
2021/12/25 05:42:20;;;;;;;;;;;-0.10;99.90;;;;;;5058017;28;20355;-77
2021/12/25 05:44:46;;;;;;;;;;;-0.10;99.90;;;;;;5057966;28;19913;-78
2021/12/25 05:47:11;;;;;;;;;;;-0.20;99.90;;;;;;5059140;28;19913;-76
2021/12/25 05:49:37;;;;;;;;;;;-0.20;99.90;;;;;;5059116;28;19909;-78
2021/12/25 05:52:03;;;;;;;;;;;-0.30;99.90;;;;;;5058866;28;19913;-78
2021/12/25 05:54:28;;;;;;;;;;;-0.40;99.90;;;;;;5057632;28;19965;-79
2021/12/25 05:56:54;;;;;;;;;;;-0.40;99.90;;;;;;5057493;28;19947;-78
2021/12/25 05:59:19;;;;;;;;;;;-0.40;99.90;;;;;;5057658;28;19913;-77
2021/12/25 06:01:45;;;;;;;;;;;-0.40;99.90;;;;;;5057429;28;20003;-77
2021/12/25 06:04:10;;;;;;;;;;;-0.50;99.90;;;;;;5057253;28;19912;-78
2021/12/25 06:06:36;;;;;;;;;;;-0.50;99.90;;;;;;5058282;28;19912;-78
2021/12/25 06:09:02;;;;;;;;;;;-0.60;99.90;;;;;;5058705;28;19923;-78
2021/12/25 06:11:31;;;;;;;;;;;-0.60;99.90;;;;;;5057313;28;20212;-79
2021/12/25 06:14:06;;;;;;;;;;;-0.70;99.90;;;;;;5058453;28;19984;-79
2021/12/25 06:16:31;;;;;;;;;;;-0.70;99.90;;;;;;5056815;28;19924;-78
2021/12/25 06:18:57;;;;;;;;;;;-0.70;99.90;;;;;;5057285;28;20337;-79
2021/12/25 06:21:22;;;;;;;;;;;-0.70;99.90;;;;;;5058301;28;19916;-79
2021/12/25 06:23:48;;;;;;;;;;;-0.70;99.90;;;;;;5058483;28;20316;-79
2021/12/25 06:26:14;;;;;;;;;;;-0.80;99.90;;;;;;5057054;28;20007;-80
2021/12/25 06:28:39;;;;;;;;;;;-0.80;99.90;;;;;;5058305;28;19952;-81
2021/12/25 06:31:05;;;;;;;;;;;-0.90;99.90;;;;;;5057998;28;20011;-80
2021/12/25 06:33:30;;;;;;;;;;;-1.00;99.90;;;;;;5056986;28;19966;-78
2021/12/25 06:35:56;;;;;;;;;;;-1.00;99.90;;;;;;5056835;28;20269;-78
2021/12/25 06:38:21;;;;;;;;;;;-1.00;99.90;;;;;;5056772;28;20079;-78
2021/12/25 06:40:47;;;;;;;;;;;-1.00;99.90;;;;;;5057756;28;20003;-77
2021/12/25 06:43:12;;;;;;;;;;;-1.00;99.90;;;;;;5058074;28;19991;-78
2021/12/25 06:45:38;;;;;;;;;;;-1.10;99.90;;;;;;5056733;28;20007;-77
2021/12/25 06:48:04;;;;;;;;;;;-1.20;99.90;;;;;;5056746;28;19909;-78
2021/12/25 06:50:29;;;;;;;;;;;-1.20;99.90;;;;;;5056650;28;19912;-76
2021/12/25 06:52:55;;;;;;;;;;;-1.20;99.90;;;;;;5055120;28;19909;-77
2021/12/25 06:55:21;;;;;;;;;;;-1.20;99.90;;;;;;5057574;28;19913;-79
2021/12/25 06:57:54;;;;;;;;;;;-1.30;99.90;;;;;;5064215;23;19924;-78
2021/12/25 07:00:20;;;;;;;;;;;-1.30;99.90;;;;;;5056360;28;19912;-77
2021/12/25 07:02:46;;;;;;;;;;;-1.40;99.90;;;;;;5057292;28;20228;-78
2021/12/25 07:05:12;;;;;;;;;;;-1.40;99.90;;;;;;5057860;28;19913;-78
2021/12/25 07:07:37;;;;;;;;;;;-1.40;99.90;;;;;;5050535;28;19909;-78
2021/12/25 07:10:03;;;;;;;;;;;-1.40;99.90;;;;;;5059433;28;19968;-79
2021/12/25 07:12:32;;;;;;;;;;;-1.40;99.90;;;;;;5056702;28;19962;-79
2021/12/25 07:14:57;;;;;;;;;;;-1.50;99.90;;;;;;5054971;28;19917;-79
2021/12/25 07:17:23;;;;;;;;;;;-1.50;99.90;;;;;;5056721;28;19917;-80
2021/12/25 07:19:48;;;;;;;;;;;-1.50;99.90;;;;;;5056653;28;20338;-79
2021/12/25 07:22:14;;;;;;;;;;;-1.60;99.90;;;;;;5056978;28;19912;-79
2021/12/25 07:24:39;;;;;;;;;;;-1.60;99.90;;;;;;5056886;28;19909;-79
2021/12/25 07:27:05;;;;;;;;;;;-1.60;99.90;;;;;;5057130;28;19908;-79
2021/12/25 07:29:31;;;;;;;;;;;-1.60;99.90;;;;;;5056920;28;19959;-78
2021/12/25 07:31:57;;;;;;;;;;;-1.70;99.90;;;;;;5056990;28;19912;-78
2021/12/25 07:34:22;;;;;;;;;;;-1.70;99.90;;;;;;5055753;28;19915;-77
2021/12/25 07:36:48;;;;;;;;;;;-1.70;99.90;;;;;;5056742;28;19909;-77
2021/12/25 07:39:13;;;;;;;;;;;-1.70;99.90;;;;;;5056753;28;19927;-81
2021/12/25 07:41:39;;;;;;;;;;;-1.80;99.90;;;;;;5056411;28;19913;-78
2021/12/25 07:44:04;;;;;;;;;;;-1.80;99.90;;;;;;5055510;28;19913;-77
2021/12/25 07:46:30;;;;;;;;;;;-1.80;99.90;;;;;;5056793;28;19909;-78
2021/12/25 07:48:57;;;;;;;;;;;-1.80;99.90;;;;;;5054582;28;19924;-78
2021/12/25 07:51:22;;;;;;;;;;;-1.90;99.90;;;;;;5054675;28;19909;-78
2021/12/25 07:53:49;;;;;;;;;;;-1.90;99.90;;;;;;5040745;28;20062;-77
2021/12/25 07:56:14;;;;;;;;;;;-1.90;99.90;;;;;;5037998;28;19952;-76
2021/12/25 07:58:42;;;;;;;;;;;-2.00;99.90;;;;;;5055327;28;20369;-76
2021/12/25 08:01:08;;;;;;;;;;;-2.00;99.90;;;;;;5056193;28;19916;-77
2021/12/25 08:03:35;;;;;;;;;;;-2.00;99.90;;;;;;5054734;28;19913;-79
2021/12/25 08:06:01;;;;;;;;;;;-2.00;99.90;;;;;;5055167;28;20319;-76
2021/12/25 08:08:26;;;;;;;;;;;-2.00;99.90;;;;;;5052830;28;20350;-75
2021/12/25 08:10:52;;;;;;;;;;;-2.00;99.90;;;;;;5053139;28;19920;-79
2021/12/25 08:13:17;;;;;;;;;;;-2.00;99.90;;;;;;5040218;28;19916;-76
2021/12/25 08:15:43;;;;;;;;;;;-1.90;99.90;;;;;;5043053;28;19920;-76
2021/12/25 08:18:09;;;;;;;;;;;-1.90;99.90;;;;;;5060890;28;19924;-77
2021/12/25 08:20:36;;;;;;;;;;;-2.00;99.90;;;;;;5055356;28;19944;-76
2021/12/25 08:23:01;;;;;;;;;;;-1.90;99.90;;;;;;5055067;28;19913;-77
2021/12/25 08:25:27;;;;;;;;;;;-2.00;99.90;;;;;;5055127;28;19916;-77
2021/12/25 08:27:53;;;;;;;;;;;-1.90;99.90;;;;;;5057985;28;19936;-77
2021/12/25 08:30:19;;;;;;;;;;;-1.90;99.90;;;;;;5043162;28;20255;-77
2021/12/25 08:32:45;;;;;;;;;;;-1.90;99.90;;;;;;5054208;28;19913;-76
2021/12/25 08:35:12;;;;;;;;;;;-1.80;99.90;;;;;;5042825;28;20327;-77
2021/12/25 08:37:39;;;;;;;;;;;-1.80;99.90;;;;;;5053599;28;19980;-75
2021/12/25 08:40:05;;;;;;;;;;;-1.80;99.90;;;;;;5054690;28;19920;-75
2021/12/25 08:42:30;;;;;;;;;;;-1.80;99.90;;;;;;5056129;28;19917;-75
2021/12/25 08:47:26;;;;;;;;;;;-1.70;99.90;;;;;;5054683;28;19909;-75
2021/12/25 08:49:51;;;;;;;;;;;-1.70;99.90;;;;;;5053535;28;19913;-75
2021/12/25 08:52:18;;;;;;;;;;;-1.70;99.90;;;;;;5057654;28;19908;-75
2021/12/25 08:54:44;;;;;;;;;;;-1.70;99.90;;;;;;5054552;28;19993;-75
2021/12/25 08:57:10;;;;;;;;;;;-1.70;99.90;;;;;;5037112;28;20213;-76
2021/12/25 08:59:36;;;;;;;;;;;-1.70;99.90;;;;;;5061939;28;19913;-74
2021/12/25 09:02:04;;;;;;;;;;;-1.70;99.90;;;;;;5042708;28;19948;-76
2021/12/25 09:04:30;;;;;;;;;;;-1.70;99.90;;;;;;5053252;28;20246;-75
2021/12/25 09:06:56;;;;;;;;;;;-1.70;99.90;;;;;;5054694;28;19912;-75
2021/12/25 09:09:22;;;;;;;;;;;-1.60;99.90;;;;;;5056322;28;20016;-75
2021/12/25 09:11:47;;;;;;;;;;;-1.70;99.90;;;;;;5057384;28;19932;-76
2021/12/25 09:14:13;;;;;;;;;;;-1.60;99.90;;;;;;5056065;28;19971;-75
2021/12/25 09:16:39;;;;;;;;;;;-1.70;99.90;;;;;;5057901;28;19909;-80
2021/12/25 09:19:05;;;;;;;;;;;-1.60;99.90;;;;;;5056037;28;19913;-75
2021/12/25 09:21:31;;;;;;;;;;;-1.60;99.90;;;;;;5054627;28;20607;-75
2021/12/25 09:23:56;;;;;;;;;;;-1.60;99.90;;;;;;5036627;28;20008;-76
2021/12/25 09:26:22;;;;;;;;;;;-1.60;99.90;;;;;;5053205;28;19909;-80
2021/12/25 09:28:47;;;;;;;;;;;-1.50;99.90;;;;;;5053957;28;19909;-77
2021/12/25 09:31:13;;;;;;;;;;;-1.50;99.90;;;;;;5036597;28;19909;-75
2021/12/25 09:33:39;;;;;;;;;;;-1.50;99.90;;;;;;5053340;28;19913;-76
2021/12/25 09:36:06;;;;;;;;;;;-1.60;99.90;;;;;;5056869;28;19916;-78
2021/12/25 09:38:33;;;;;;;;;;;-1.60;99.90;;;;;;5054038;28;19917;-76
2021/12/25 09:40:58;;;;;;;;;;;-1.60;99.90;;;;;;5054783;28;20023;-75
2021/12/25 09:43:24;;;;;;;;;;;-1.60;99.90;;;;;;5055036;28;20318;-75
2021/12/25 09:45:50;;;;;;;;;;;-1.60;99.90;;;;;;5052868;28;19920;-76
2021/12/25 09:48:18;;;;;;;;;;;-1.60;99.90;;;;;;5052433;28;20158;-76
2021/12/25 09:50:44;;;;;;;;;;;-1.60;99.90;;;;;;5053984;28;19909;-76
2021/12/25 09:53:12;;;;;;;;;;;-1.60;99.90;;;;;;5056585;28;19909;-75
2021/12/25 09:55:38;;;;;;;;;;;-1.60;99.90;;;;;;5053955;28;19913;-75
2021/12/25 09:58:05;;;;;;;;;;;-1.60;99.90;;;;;;5053748;28;19943;-77
2021/12/25 10:00:31;;;;;;;;;;;-1.60;99.90;;;;;;5036341;28;19920;-76
2021/12/25 10:02:57;;;;;;;;;;;-1.50;99.90;;;;;;5052968;28;19966;-75
2021/12/25 10:05:36;;;;;;;;;;;-1.60;99.90;;;;;;5056815;28;20562;-82
2021/12/25 10:08:11;;;;;;;;;;;-1.50;99.90;;;;;;5056500;28;19958;-81
2021/12/25 10:10:51;;;;;;;;;;;-1.50;99.90;;;;;;5052376;28;20208;-77
2021/12/25 10:16:22;;;;;;;;;;;-1.50;99.90;;;;;;5053807;28;19971;-82
2021/12/25 10:18:48;;;;;;;;;;;-1.40;99.90;;;;;;5056084;28;19917;-81
2021/12/25 10:21:27;;;;;;;;;;;-1.40;99.90;;;;;;5052891;28;20315;-79
2021/12/25 10:24:06;;;;;;;;;;;-1.40;99.90;;;;;;5066996;28;20025;-76
2021/12/25 10:26:32;;;;;;;;;;;-1.40;99.90;;;;;;5040311;28;19913;-79
2021/12/25 10:28:57;;;;;;;;;;;-1.30;99.90;;;;;;5050713;28;19921;-79
2021/12/25 10:31:34;;;;;;;;;;;-1.20;99.90;;;;;;5053492;28;19917;-81
2021/12/25 10:34:11;;;;;;;;;;;-1.20;99.90;;;;;;5057131;28;20316;-81
2021/12/25 10:36:37;;;;;;;;;;;-1.20;99.90;;;;;;5059000;28;19944;-80
2021/12/25 10:39:07;;;;;;;;;;;-1.20;99.90;;;;;;5054439;28;19940;-80
2021/12/25 10:41:35;;;;;;;;;;;-1.20;99.90;;;;;;5056910;28;19909;-81
2021/12/25 10:44:12;;;;;;;;;;;-1.20;99.90;;;;;;5057530;28;19959;-78
2021/12/25 10:46:52;;;;;;;;;;;-1.20;99.90;;;;;;5058005;28;19909;-82
2021/12/25 10:49:17;;;;;;;;;;;-1.10;99.90;;;;;;5057937;28;19909;-80
2021/12/25 10:51:43;;;;;;;;;;;-1.00;99.90;;;;;;5056923;28;19916;-82
2021/12/25 10:54:12;;;;;;;;;;;-1.00;99.90;;;;;;5056282;28;19955;-81
2021/12/25 10:56:40;;;;;;;;;;;-1.00;99.90;;;;;;5057505;28;19916;-79
2021/12/25 10:59:07;;;;;;;;;;;-1.00;99.90;;;;;;5056586;28;19921;-80
2021/12/25 11:01:42;;;;;;;;;;;-1.00;99.90;;;;;;5055813;28;19909;-81
2021/12/25 11:04:24;;;;;;;;;;;-1.00;99.90;;;;;;5059448;28;19917;-81
2021/12/25 11:06:49;;;;;;;;;;;-1.00;99.90;;;;;;5062637;28;19917;-82
2021/12/25 11:09:15;;;;;;;;;;;-0.90;99.90;;;;;;5057026;28;19916;-83
2021/12/25 11:11:40;;;;;;;;;;;-0.80;99.90;;;;;;5058956;28;19912;-84
2021/12/25 11:14:07;;;;;;;;;;;-0.70;99.90;;;;;;5057491;28;19996;-82
2021/12/25 11:16:37;;;;;;;;;;;-0.70;99.90;;;;;;5056465;28;19915;-82
2021/12/25 11:19:28;;;;;;;;;;;-0.70;99.90;;;;;;5056437;28;19956;-83
2021/12/25 11:21:55;;;;;;;;;;;-0.60;99.90;;;;;;5056672;28;19915;-82
2021/12/25 11:24:23;;;;;;;;;;;-0.60;99.90;;;;;;5056230;28;19916;-81
2021/12/25 11:26:54;;;;;;;;;;;-0.60;99.90;;;;;;5056730;28;20231;-84
2021/12/25 11:29:21;;;;;;;;;;;-0.50;99.90;;;;;;5057393;28;19909;-82
2021/12/25 11:31:48;;;;;;;;;;;-0.50;99.90;;;;;;5056502;28;20318;-82
2021/12/25 11:34:15;;;;;;;;;;;-0.40;99.90;;;;;;5056561;28;19913;-82
2021/12/25 11:36:42;;;;;;;;;;;-0.40;99.90;;;;;;5057496;28;19912;-84
2021/12/25 11:39:07;;;;;;;;;;;-0.30;99.90;;;;;;5056934;28;19913;-84
2021/12/25 11:41:34;;;;;;;;;;;-0.30;99.90;;;;;;5055815;28;19916;-87
2021/12/25 11:44:05;;;;;;;;;;;-0.30;99.90;;;;;;5058641;28;19924;-85
2021/12/25 11:46:38;;;;;;;;;;;-0.30;99.90;;;;;;5056155;28;19971;-85
2021/12/25 11:49:11;;;;;;;;;;;-0.30;99.90;;;;;;5053539;28;19913;-83
2021/12/25 11:51:39;;;;;;;;;;;-0.20;99.90;;;;;;5056871;28;19923;-83
2021/12/25 11:54:42;;;;;;;;;;;-0.10;99.90;;;;;;5059588;28;19909;-81
2021/12/25 11:59:46;;;;;;;;;;;0.00;99.90;;;;;;5056881;28;19924;-86
2021/12/25 12:02:32;;;;;;;;;;;0.00;99.90;;;;;;5059914;28;19908;-85
2021/12/25 12:05:16;;;;;;;;;;;0.00;99.90;;;;;;5052897;28;20310;-85
2021/12/25 12:07:58;;;;;;;;;;;0.10;99.90;;;;;;5059325;28;19909;-85
2021/12/25 12:10:42;;;;;;;;;;;0.20;99.90;;;;;;5055726;28;19916;-79
2021/12/25 12:13:20;;;;;;;;;;;0.20;99.90;;;;;;5059287;28;20327;-84
2021/12/25 12:15:46;;;;;;;;;;;0.20;99.90;;;;;;5056268;28;19950;-85
2021/12/25 12:18:30;;;;;;;;;;;0.10;99.90;;;;;;5056410;28;19909;-85
2021/12/25 12:21:08;;;;;;;;;;;0.10;99.90;;;;;;5055121;28;19912;-84
2021/12/25 12:26:12;;;;;;;;;;;0.20;99.90;;;;;;5056315;28;20312;-79
2021/12/25 12:28:41;;;;;;;;;;;0.20;99.90;;;;;;5051594;28;19909;-82
2021/12/25 12:31:07;;;;;;;;;;;0.10;99.90;;;;;;5056075;28;19912;-83
2021/12/25 12:33:33;;;;;;;;;;;0.20;99.90;;;;;;5054576;28;20254;-82
2021/12/25 12:36:00;;;;;;;;;;;0.10;99.90;;;;;;5055245;28;20003;-81
2021/12/25 12:38:40;;;;;;;;;;;0.10;99.90;;;;;;5045771;28;20019;-83
2021/12/25 12:41:13;;;;;;;;;;;0.10;99.90;;;;;;5036643;28;19931;-81
2021/12/25 12:43:54;;;;;;;;;;;0.10;99.90;;;;;;5055385;28;20308;-78
2021/12/25 12:46:19;;;;;;;;;;;0.00;99.90;;;;;;5055051;28;19909;-82
2021/12/25 12:49:05;;;;;;;;;;;0.00;99.90;;;;;;5057465;28;20262;-78
2021/12/25 12:51:30;;;;;;;;;;;0.00;99.90;;;;;;5055266;28;19916;-77
2021/12/25 12:53:56;;;;;;;;;;;-0.10;99.90;;;;;;5055086;28;19913;-82
2021/12/25 12:56:22;;;;;;;;;;;-0.10;99.90;;;;;;5052389;28;19928;-76
2021/12/25 12:58:52;;;;;;;;;;;-0.10;99.90;;;;;;5057180;28;20224;-81
2021/12/25 13:01:18;;;;;;;;;;;-0.10;99.90;;;;;;5053688;28;19999;-79
2021/12/25 13:03:44;;;;;;;;;;;-0.20;99.90;;;;;;5054582;28;20023;-76
2021/12/25 13:06:13;;;;;;;;;;;-0.20;99.90;;;;;;5053715;28;19963;-80
2021/12/25 13:08:40;;;;;;;;;;;-0.20;99.90;;;;;;5056582;28;20250;-82
2021/12/25 13:11:12;;;;;;;;;;;-0.20;99.90;;;;;;5054967;28;19952;-82
2021/12/25 13:13:46;;;;;;;;;;;-0.20;99.90;;;;;;5055003;28;19915;-78
2021/12/25 13:16:14;;;;;;;;;;;-0.10;99.90;;;;;;5053237;28;19915;-81
2021/12/25 13:18:42;;;;;;;;;;;-0.20;99.90;;;;;;5053184;28;19913;-75
2021/12/25 13:21:09;;;;;;;;;;;-0.20;99.90;;;;;;5054670;28;20035;-82
2021/12/25 13:23:36;;;;;;;;;;;-0.20;99.90;;;;;;5054236;28;19913;-75
2021/12/25 13:26:06;;;;;;;;;;;-0.20;99.90;;;;;;5054561;28;19948;-81
2021/12/25 13:28:33;;;;;;;;;;;-0.20;99.90;;;;;;5053825;28;20322;-82
2021/12/25 13:31:09;;;;;;;;;;;-0.20;99.90;;;;;;5054630;28;20345;-80
2021/12/25 13:33:38;;;;;;;;;;;-0.20;99.90;;;;;;5054467;28;19920;-75
2021/12/25 13:36:09;;;;;;;;;;;-0.20;99.90;;;;;;5056391;28;19919;-80
2021/12/25 13:39:12;;;;;;;;;;;-0.20;99.90;;;;;;5053936;28;19917;-76
2021/12/25 13:41:42;;;;;;;;;;;-0.30;99.90;;;;;;4987242;28;19910;-79
2021/12/25 13:44:13;;;;;;;;;;;-0.30;99.90;;;;;;4982226;28;19914;-80
2021/12/25 13:46:41;;;;;;;;;;;-0.30;99.90;;;;;;4992813;28;19913;-78
2021/12/25 13:49:07;;;;;;;;;;;-0.30;99.90;;;;;;4992853;28;20045;-78
2021/12/25 13:51:32;;;;;;;;;;;-0.40;99.90;;;;;;4992808;28;19910;-81
2021/12/25 13:53:58;;;;;;;;;;;-0.40;99.90;;;;;;4992907;28;19980;-82
2021/12/25 13:56:23;;;;;;;;;;;-0.40;99.90;;;;;;4976201;28;20272;-79
2021/12/25 13:58:49;;;;;;;;;;;-0.40;99.90;;;;;;4992938;28;19926;-82
2021/12/25 14:01:15;;;;;;;;;;;-0.40;99.90;;;;;;4992632;28;19993;-78
2021/12/25 14:03:42;;;;;;;;;;;-0.50;99.90;;;;;;4993299;28;19989;-82
2021/12/25 14:06:08;;;;;;;;;;;-0.40;99.90;;;;;;4980410;28;19910;-80
2021/12/25 14:08:33;;;;;;;;;;;-0.40;99.90;;;;;;4996411;28;20662;-81
2021/12/25 14:10:59;;;;;;;;;;;-0.40;99.90;;;;;;4996454;28;19922;-77
2021/12/25 14:13:26;;;;;;;;;;;-0.40;99.90;;;;;;4996172;28;19972;-85
2021/12/25 14:15:53;;;;;;;;;;;-0.50;99.90;;;;;;5033417;28;19982;-78
2021/12/25 14:18:22;;;;;;;;;;;-0.50;99.90;;;;;;5057164;28;19999;-82
2021/12/25 14:20:47;;;;;;;;;;;-0.50;99.90;;;;;;5057425;28;20322;-80
2021/12/25 14:23:21;;;;;;;;;;;-0.50;99.90;;;;;;5056464;28;19912;-76
2021/12/25 14:25:52;;;;;;;;;;;-0.50;99.90;;;;;;5062407;28;19971;-80
2021/12/25 14:28:21;;;;;;;;;;;-0.50;99.90;;;;;;5062954;28;19948;-80
2021/12/25 14:31:05;;;;;;;;;;;-0.60;99.90;;;;;;5058318;28;19917;-82
2021/12/25 14:33:32;;;;;;;;;;;-0.60;99.90;;;;;;5047910;28;19924;-81
2021/12/25 14:35:57;;;;;;;;;;;-0.60;99.90;;;;;;5056780;28;19913;-83
2021/12/25 14:38:23;;;;;;;;;;;-0.60;99.90;;;;;;5057033;28;20172;-83
2021/12/25 14:40:50;;;;;;;;;;;-0.70;99.90;;;;;;5057532;28;19909;-83
2021/12/25 14:43:26;;;;;;;;;;;-0.70;99.90;;;;;;5060362;28;19909;-83
2021/12/25 14:45:53;;;;;;;;;;;-0.70;99.90;;;;;;5057442;28;20362;-82
2021/12/25 14:48:26;;;;;;;;;;;-0.80;99.90;;;;;;5057417;28;20323;-76
2021/12/25 14:51:00;;;;;;;;;;;-0.80;99.90;;;;;;5057432;28;19912;-82
2021/12/25 14:53:27;;;;;;;;;;;-0.80;99.90;;;;;;5058929;28;19913;-80
2021/12/25 14:55:58;;;;;;;;;;;-0.90;99.90;;;;;;5055785;28;19909;-84
2021/12/25 14:58:28;;;;;;;;;;;-0.90;99.90;;;;;;5057401;28;19916;-80
2021/12/25 15:01:02;;;;;;;;;;;-0.90;99.90;;;;;;5064589;28;19962;-80
2021/12/25 15:03:28;;;;;;;;;;;-0.90;99.90;;;;;;5057187;28;19909;-84
2021/12/25 15:05:55;;;;;;;;;;;-1.00;99.90;;;;;;5056868;28;19975;-78
2021/12/25 15:08:34;;;;;;;;;;;-1.00;99.90;;;;;;5058150;28;19916;-84
2021/12/25 15:11:11;;;;;;;;;;;-1.10;99.90;;;;;;5057884;28;20008;-84
2021/12/25 15:13:37;;;;;;;;;;;-1.10;99.90;;;;;;5055952;28;19963;-84
2021/12/25 15:16:03;;;;;;;;;;;-1.10;99.90;;;;;;5057425;28;19916;-85
2021/12/25 15:18:31;;;;;;;;;;;-1.10;99.90;;;;;;5059114;28;19967;-85
2021/12/25 15:21:04;;;;;;;;;;;-1.20;99.90;;;;;;5057723;28;19962;-86
2021/12/25 15:23:31;;;;;;;;;;;-1.30;99.90;;;;;;5056958;28;19909;-84
2021/12/25 15:26:04;;;;;;;;;;;-1.30;99.90;;;;;;5057153;28;19991;-85
2021/12/25 15:28:30;;;;;;;;;;;-1.30;99.90;;;;;;5057601;28;20003;-85
2021/12/25 15:30:55;;;;;;;;;;;-1.30;99.90;;;;;;5057017;28;20023;-79
2021/12/25 15:33:21;;;;;;;;;;;-1.40;99.90;;;;;;5057794;28;19919;-84
2021/12/25 15:35:46;;;;;;;;;;;-1.40;99.90;;;;;;5057790;28;19913;-85
2021/12/25 15:38:22;;;;;;;;;;;-1.50;99.90;;;;;;5057441;28;19916;-87
2021/12/25 15:40:49;;;;;;;;;;;-1.50;99.90;;;;;;5056387;28;20003;-82
2021/12/25 15:43:16;;;;;;;;;;;-1.50;99.90;;;;;;5055991;28;19909;-75
2021/12/25 15:45:42;;;;;;;;;;;-1.50;99.90;;;;;;5057014;28;20051;-82
2021/12/25 15:48:07;;;;;;;;;;;-1.50;99.90;;;;;;5056962;28;20003;-82